EGNT

Newcastle Airport

Newcastle, United Kingdom
METAR EGNT 260350Z 03009KT 4100 BR OVC003 11/10 Q1025
Observed Flight Rules
May-26 @ 03:50 UTC (28 minutes ago) Instrument Flight Rules
Wind Visibility Clouds Conditions
30° at 9 knots 4,104 meters
  • Overcast at 300' AGL
  • Mist
Temperatures Readings
Current 11°C / 52°F
Dewpoint 10°C / 50°F
Humidity 94%
Altimeter 30.27" Hg
Pressure 1025 hPa
Elevation 81
METAR EGNT 260350Z 03009KT 4100 BR OVC003 11/10 Q1025
Observed Flight Rules
May-26 @ 03:50 UTC
(28 minutes ago)
LIFR
Wind Visibility
30° at 9 knots 4,104 meters
Clouds
  • Overcast at 300' AGL
Conditions
  • Mist
Temperature Dewpoint
11°C / 52°F 10°C / 50°F
Humidity Altimeter Pressure
94% 30.27" Hg 1025 hPa